Flight Track Log - Related Links

Times and Time Zones

All times are in EDT time to prevent confusion due to time zone crossing. See the N10UH flight status page for this flight to view local times or setup timezone preferences in your user account.

Time Position Orientation Groundspeed Altitude Reporting Facility
EDT Latitude Longitude Course Direction KTS MPH feet Rate Location/Type
Wed 05:16:21 AM 32.0833 -85.2203 324° Northwest 293 337 7,900  Level Atlanta Center
Wed 05:17:21 AM 32.1308 -85.2725 317° Northwest 254 292 10,700 2,700 Climbing Atlanta Center
Wed 05:18:21 AM 32.1803 -85.3197 321° Northwest 233 268 13,300 1,650 Climbing Atlanta Center
Wed 05:19:21 AM 32.2361 -85.3722 322° Northwest 239 275 14,000 350 Climbing Atlanta Center
Wed 05:20:21 AM 32.2981 -85.4394 317° Northwest 275 316 14,000  Level Atlanta Center
Wed 05:21:00 AM 32.3325 -85.5054 324° Northwest  Level FlightAware Approximate
Wed 05:21:21 AM 32.3683 -85.5069 321° Northwest 305 351 14,000  Level Atlanta Center
Wed 05:22:21 AM 32.4300 -85.5744 317° Northwest 310 357 14,000  Level Atlanta Center
Wed 05:23:21 AM 32.4939 -85.6397 319° Northwest 310 357 14,000  Level Atlanta Center
Wed 05:24:21 AM 32.5619 -85.7072 320° Northwest 310 357 14,000  Level Atlanta Center
Wed 05:25:21 AM 32.6278 -85.7728 320° Northwest 310 357 14,000  Level Atlanta Center
Wed 05:26:21 AM 32.6917 -85.8406 318° Northwest 310 357 14,000  Level Atlanta Center
Wed 05:27:21 AM 32.7553 -85.9061 319° Northwest 310 357 14,000  Level Atlanta Center
Wed 05:28:21 AM 32.8189 -85.9717 319° Northwest 305 351 14,000  Level Atlanta Center
Wed 05:29:21 AM 32.8867 -86.0400 320° Northwest 305 351 14,000  Level Atlanta Center
Wed 05:30:21 AM 32.9503 -86.1083 318° Northwest 305 351 14,000  Level Atlanta Center
Wed 05:31:21 AM 33.0139 -86.1767 318° Northwest 305 351 14,000  Level Atlanta Center
Wed 05:32:21 AM 33.0775 -86.2428 319° Northwest 305 351 14,000 -100 Level Atlanta Center
Wed 05:33:21 AM 33.1325 -86.3161 312° West 305 351 13,800 -1,100 Descending Atlanta Center
Wed 05:34:21 AM 33.1894 -86.3919 312° West 305 351 11,800 -2,000 Descending Atlanta Center
Wed 05:35:21 AM 33.2444 -86.4581 315° West 299 344 9,800 -2,000 Descending Atlanta Center
Wed 05:36:21 AM 33.2975 -86.5242 314° West 287 330 7,800 -2,080 Descending Atlanta Center
Wed 05:36:36 AM 33.3075 -86.5442 301° West 266 306 7,200 -1,800 Descending Atlanta Center
Wed 05:37:21 AM 33.3422 -86.5825 317° Northwest 281 323 6,000 -1,909 Descending Atlanta Center
Wed 05:37:42 AM 33.3625 -86.6131 308° West 259 298 5,100 -1,816 Descending Atlanta Center
Wed 05:38:37 AM 33.4072 -86.6617 318° Northwest 239 275 3,700 -1,345 Descending Atlanta Center
Wed 05:39:38 AM 33.4586 -86.7056 325° Northwest 214 246 2,500 -793 Descending Atlanta Center
Wed 05:40:38 AM 33.4997 -86.7342 330° Northwest 157 181 2,100 -694 Descending Atlanta Center
Wed 05:41:39 AM 33.5306 -86.7500 337° Northwest 116 133 1,100 -984 Descending Atlanta Center
Wed 05:43:00 AM 33.5500 -86.7500 309° West  Level FlightAware Approximate
Wed 05:50:00 AM 33.5639 -86.7523 309° West  Level Estimated

Login

Don't have an account? Register now (free) for customized features, flight alerts, and more!